createdAt,value
2022-08-04T00:02:18.276Z,100421.56
2022-08-04T00:06:02.073Z,100437.38
2022-08-04T00:09:13.444Z,100435.59
2022-08-04T00:12:17.164Z,100427.28
2022-08-04T00:15:20.042Z,100428.03
2022-08-04T00:18:29.536Z,100425.19
2022-08-04T00:21:35.693Z,100427.84
2022-08-04T00:24:37.675Z,100423.47
2022-08-04T00:27:39.351Z,100423.19
2022-08-04T00:30:42.523Z,100421.63
2022-08-04T00:33:48.639Z,100416.72
2022-08-04T00:36:51.206Z,100422.75
2022-08-04T00:39:57.173Z,100431.78
2022-08-04T00:43:37.745Z,100422.63
2022-08-04T00:47:13.593Z,100424.53
2022-08-04T00:50:22.123Z,100431.38
2022-08-04T00:53:57.837Z,100430.69
2022-08-04T00:57:34.430Z,100422.88
2022-08-04T01:01:04.242Z,100417.78
2022-08-04T01:04:46.049Z,100417.31
2022-08-04T01:08:09.372Z,100412.59
2022-08-04T01:11:20.093Z,100414.84
2022-08-04T01:14:52.735Z,100409.75
2022-08-04T01:18:06.190Z,100409.25
2022-08-04T01:21:23.016Z,100405.69
2022-08-04T01:24:43.438Z,100408.94
2022-08-04T01:28:19.098Z,100415.25
2022-08-04T01:31:42.566Z,100413.91
2022-08-04T01:34:52.433Z,100409.69
2022-08-04T01:37:57.046Z,100403.09
2022-08-04T01:41:04.787Z,100410.75
2022-08-04T01:44:09.315Z,100400.59
2022-08-04T01:47:11.915Z,100407.25
2022-08-04T01:50:14.200Z,100407.41
2022-08-04T01:53:16.515Z,100413.22
2022-08-04T01:56:21.350Z,100417.00
2022-08-04T01:59:23.058Z,100405.75
2022-08-04T02:02:24.892Z,100406.06
2022-08-04T02:06:03.746Z,100407.13
2022-08-04T02:09:04.125Z,100404.06
2022-08-04T02:12:21.403Z,100392.03
2022-08-04T02:15:29.165Z,100398.69
2022-08-04T02:18:43.050Z,100392.72
2022-08-04T02:21:51.632Z,100384.91
2022-08-04T02:25:03.657Z,100385.28
2022-08-04T02:28:13.015Z,100380.34
2022-08-04T02:31:25.239Z,100381.38
2022-08-04T02:34:39.851Z,100378.34
2022-08-04T02:37:48.236Z,100381.22
2022-08-04T02:40:53.944Z,100378.88
2022-08-04T02:44:04.100Z,100377.50
2022-08-04T02:47:06.572Z,100375.00
2022-08-04T02:50:11.937Z,100376.19
2022-08-04T02:53:15.499Z,100379.91
2022-08-04T02:56:20.154Z,100372.94
2022-08-04T02:59:26.369Z,100371.44
2022-08-04T03:02:39.054Z,100372.47
2022-08-04T03:05:57.696Z,100371.09
2022-08-04T03:09:35.105Z,100368.22
2022-08-04T03:12:57.819Z,100368.56
2022-08-04T03:16:24.503Z,100360.94
2022-08-04T03:19:47.518Z,100362.28
2022-08-04T03:23:13.409Z,100362.66
2022-08-04T03:26:30.955Z,100364.53
2022-08-04T03:30:17.537Z,100359.44
2022-08-04T03:33:44.552Z,100357.72
2022-08-04T03:37:12.470Z,100355.72
2022-08-04T03:40:36.234Z,100353.69
2022-08-04T03:44:12.014Z,100357.41
2022-08-04T03:47:22.968Z,100359.47
2022-08-04T03:50:43.456Z,100360.81
2022-08-04T03:54:08.193Z,100356.41
2022-08-04T03:58:11.474Z,100358.09
2022-08-04T04:01:29.866Z,100364.72
2022-08-04T04:05:05.100Z,100362.84
2022-08-04T04:08:46.618Z,100360.63
2022-08-04T04:12:21.719Z,100352.31
2022-08-04T04:15:49.972Z,100358.59
2022-08-04T04:19:16.930Z,100355.38
2022-08-04T04:23:00.096Z,100357.09
2022-08-04T04:26:43.753Z,100354.34
2022-08-04T04:30:06.257Z,100355.88
2022-08-04T04:33:45.514Z,100359.09
2022-08-04T04:37:16.515Z,100350.41
2022-08-04T04:40:34.191Z,100348.16
2022-08-04T04:43:54.663Z,100349.69
2022-08-04T04:47:18.959Z,100354.56
2022-08-04T04:51:02.356Z,100356.69
2022-08-04T04:54:25.908Z,100345.94
2022-08-04T04:57:53.593Z,100344.06
2022-08-04T05:01:25.617Z,100354.25
2022-08-04T05:05:07.738Z,100345.72
2022-08-04T05:08:43.842Z,100345.66
2022-08-04T05:14:31.769Z,100344.75
2022-08-04T05:15:37.759Z,100342.38
2022-08-04T05:18:42.945Z,100347.59
2022-08-04T05:22:14.448Z,100342.06
2022-08-04T05:25:25.483Z,100347.28
2022-08-04T05:28:38.505Z,100335.94
2022-08-04T05:31:49.802Z,100339.38
2022-08-04T05:35:05.547Z,100326.91
2022-08-04T05:38:11.614Z,100336.94
2022-08-04T05:41:14.296Z,100329.78
2022-08-04T05:44:18.560Z,100323.31
2022-08-04T05:47:23.910Z,100329.06
2022-08-04T05:50:26.210Z,100325.53
2022-08-04T05:53:29.348Z,100322.38
2022-08-04T05:56:33.428Z,100326.50
2022-08-04T05:59:38.970Z,100322.31
2022-08-04T06:02:42.578Z,100321.06
2022-08-04T06:05:45.655Z,100317.97
2022-08-04T06:08:47.421Z,100311.78
2022-08-04T06:12:03.482Z,100312.94
2022-08-04T06:15:08.217Z,100314.88
2022-08-04T06:19:56.105Z,100310.41
2022-08-04T06:21:34.987Z,100313.16
2022-08-04T06:24:39.210Z,100306.41
2022-08-04T06:27:42.149Z,100302.91
2022-08-04T06:30:49.768Z,100293.78
2022-08-04T06:33:54.374Z,100290.59
2022-08-04T06:36:58.500Z,100295.56
2022-08-04T06:40:02.822Z,100290.91
2022-08-04T06:43:28.035Z,100297.63
2022-08-04T06:46:32.353Z,100292.59
2022-08-04T06:49:43.940Z,100290.25
2022-08-04T06:52:57.881Z,100289.38
2022-08-04T06:56:01.179Z,100288.97
2022-08-04T06:59:04.705Z,100284.06
2022-08-04T07:02:07.378Z,100290.44
2022-08-04T07:05:10.963Z,100282.38
2022-08-04T07:08:13.322Z,100282.19
2022-08-04T07:11:15.514Z,100283.84
2022-08-04T07:14:17.980Z,100292.00
2022-08-04T07:17:22.068Z,100280.69
2022-08-04T07:20:30.519Z,100278.28
2022-08-04T07:23:37.808Z,100281.84
2022-08-04T07:26:39.479Z,100275.81
2022-08-04T07:29:41.532Z,100275.69
2022-08-04T07:32:46.101Z,100274.91
2022-08-04T07:36:05.817Z,100269.84
2022-08-04T07:39:27.151Z,100274.06
2022-08-04T07:42:30.490Z,100272.72
2022-08-04T07:45:32.653Z,100271.88
2022-08-04T07:48:34.624Z,100265.09
2022-08-04T07:51:37.358Z,100267.31
2022-08-04T07:54:39.729Z,100263.97
2022-08-04T07:57:42.282Z,100266.28
2022-08-04T08:00:47.486Z,100258.75
2022-08-04T08:03:50.369Z,100262.03
2022-08-04T08:06:52.476Z,100260.22
2022-08-04T08:09:54.348Z,100252.91
2022-08-04T08:12:56.405Z,100257.13
2022-08-04T08:15:59.410Z,100251.97
2022-08-04T08:19:01.816Z,100253.41
2022-08-04T08:22:04.218Z,100249.03
2022-08-04T08:25:07.121Z,100250.97
2022-08-04T08:28:08.988Z,100250.78
2022-08-04T08:31:11.894Z,100239.84
2022-08-04T08:34:14.264Z,100238.94
2022-08-04T08:37:45.284Z,100241.16
2022-08-04T08:40:56.392Z,100239.63
2022-08-04T08:44:07.687Z,100239.59
2022-08-04T08:48:05.448Z,100235.59
2022-08-04T08:51:02.693Z,100233.09
2022-08-04T08:54:34.869Z,100237.94
2022-08-04T08:58:01.219Z,100248.94
2022-08-04T09:01:39.650Z,100245.50
2022-08-04T09:05:10.043Z,100238.56
2022-08-04T09:08:20.977Z,100237.09
2022-08-04T09:11:26.158Z,100237.19
2022-08-04T09:14:54.412Z,100239.28
2022-08-04T09:18:17.918Z,100232.09
2022-08-04T09:21:40.757Z,100230.69
2022-08-04T09:24:52.641Z,100231.53
2022-08-04T09:28:00.714Z,100228.22
2022-08-04T09:31:22.343Z,100224.84
2022-08-04T09:34:29.605Z,100223.03
2022-08-04T09:37:46.728Z,100224.28
2022-08-04T09:40:57.883Z,100221.59
2022-08-04T09:44:52.419Z,100226.47
2022-08-04T09:47:53.933Z,100224.28
2022-08-04T09:50:59.880Z,100218.78
2022-08-04T09:54:39.196Z,100222.72
2022-08-04T09:58:12.696Z,100215.56
2022-08-04T10:01:22.889Z,100215.38
2022-08-04T10:04:29.266Z,100213.44
2022-08-04T10:07:59.731Z,100209.53
2022-08-04T10:11:54.964Z,100208.41
2022-08-04T10:15:19.791Z,100209.53
2022-08-04T10:18:46.437Z,100196.47
2022-08-04T10:21:59.370Z,100197.66
2022-08-04T10:26:06.077Z,100197.75
2022-08-04T10:29:32.130Z,100189.78
2022-08-04T10:33:04.491Z,100195.13
2022-08-04T10:36:17.993Z,100188.19
2022-08-04T10:40:07.432Z,100178.22
2022-08-04T10:43:30.494Z,100189.66
2022-08-04T10:46:39.564Z,100181.84
2022-08-04T10:49:46.830Z,100184.63
2022-08-04T10:52:57.710Z,100176.81
2022-08-04T10:56:09.720Z,100179.03
2022-08-04T10:59:34.829Z,100169.00
2022-08-04T11:02:40.420Z,100173.13
2022-08-04T11:05:44.456Z,100172.56
2022-08-04T11:08:52.128Z,100167.56
2022-08-04T11:12:03.727Z,100169.28
2022-08-04T11:15:12.176Z,100175.19
2022-08-04T11:18:24.549Z,100174.97
2022-08-04T11:21:32.136Z,100169.41
2022-08-04T11:24:47.727Z,100172.44
2022-08-04T11:28:09.562Z,100164.63
2022-08-04T11:31:21.595Z,100163.50
2022-08-04T11:34:25.142Z,100154.59
2022-08-04T11:37:33.294Z,100162.94
2022-08-04T11:40:55.922Z,100155.09
2022-08-04T11:44:12.261Z,100152.81
2022-08-04T11:47:40.133Z,100157.19
2022-08-04T11:50:53.658Z,100154.72
2022-08-04T11:53:56.819Z,100154.41
2022-08-04T11:56:58.837Z,100165.22
2022-08-04T12:00:05.430Z,100163.34
2022-08-04T12:03:37.559Z,100159.53
2022-08-04T12:07:15.100Z,100161.53
2022-08-04T12:10:38.049Z,100150.69
2022-08-04T12:14:04.212Z,100157.44
2022-08-04T12:17:06.947Z,100156.59
2022-08-04T12:20:31.621Z,100152.75
2022-08-04T12:23:43.864Z,100146.63
2022-08-04T12:26:52.162Z,100145.78
2022-08-04T12:30:58.981Z,100140.47
2022-08-04T12:34:03.067Z,100159.38
2022-08-04T12:36:59.009Z,100151.53
2022-08-04T12:40:28.562Z,100149.03
2022-08-04T12:43:42.130Z,100150.19
2022-08-04T12:46:46.888Z,100140.19
2022-08-04T12:50:01.005Z,100132.69
2022-08-04T12:53:12.028Z,100133.53
2022-08-04T12:56:26.877Z,100136.06
2022-08-04T12:59:28.886Z,100133.53
2022-08-04T13:02:34.501Z,100121.59
2022-08-04T13:05:37.769Z,100129.34
2022-08-04T13:08:42.136Z,100135.22
2022-08-04T13:11:50.654Z,100124.53
2022-08-04T13:15:08.796Z,100120.34
2022-08-04T13:18:15.142Z,100121.00
2022-08-04T13:21:20.244Z,100125.47
2022-08-04T13:24:31.992Z,100119.28
2022-08-04T13:27:43.208Z,100116.19
2022-08-04T13:30:48.174Z,100118.16
2022-08-04T13:33:53.259Z,100106.81
2022-08-04T13:36:56.956Z,100110.09
2022-08-04T13:40:00.198Z,100108.97
2022-08-04T13:43:03.176Z,100110.06
2022-08-04T13:46:06.847Z,100102.00
2022-08-04T13:52:34.741Z,100101.53
2022-08-04T13:55:37.307Z,100092.34
2022-08-04T13:58:44.087Z,100094.56
2022-08-04T14:01:57.729Z,100095.13
2022-08-04T14:05:18.800Z,100107.91
2022-08-04T14:08:26.384Z,100082.88
2022-08-04T14:12:09.111Z,100082.59
2022-08-04T14:14:57.139Z,100075.63
2022-08-04T14:18:20.911Z,100067.28
2022-08-04T14:21:22.612Z,100076.72
2022-08-04T14:24:27.484Z,100060.03
2022-08-04T14:27:29.430Z,100066.44
2022-08-04T14:30:36.970Z,100068.09
2022-08-04T14:34:01.794Z,100061.16
2022-08-04T14:37:18.578Z,100058.69
2022-08-04T14:40:30.704Z,100062.84
2022-08-04T14:43:33.061Z,100069.81
2022-08-04T14:46:50.137Z,100062.00
2022-08-04T14:49:55.935Z,100060.56
2022-08-04T14:53:07.204Z,100058.28
2022-08-04T14:56:20.006Z,100055.22
2022-08-04T15:00:01.426Z,100056.94
2022-08-04T15:03:10.319Z,100074.25
2022-08-04T15:06:16.182Z,100065.06
2022-08-04T15:09:20.864Z,100060.91
2022-08-04T15:12:22.851Z,100066.16
2022-08-04T15:15:36.480Z,100074.25
2022-08-04T15:18:40.757Z,100066.47
2022-08-04T15:21:42.476Z,100073.97
2022-08-04T15:24:44.226Z,100066.41
2022-08-04T15:27:51.621Z,100075.28
2022-08-04T15:30:54.889Z,100080.78
2022-08-04T15:33:57.021Z,100062.66
2022-08-04T15:37:06.830Z,100062.34
2022-08-04T15:40:39.416Z,100091.81
2022-08-04T15:43:55.051Z,100107.28
2022-08-04T15:47:03.365Z,100127.84
2022-08-04T15:50:13.094Z,100127.75
2022-08-04T15:53:14.830Z,100149.50
2022-08-04T15:56:27.650Z,100155.25
2022-08-04T16:00:01.101Z,100153.31
2022-08-04T16:03:57.835Z,100159.75
2022-08-04T16:07:06.650Z,100169.56
2022-08-04T16:10:45.322Z,100166.69
2022-08-04T16:14:10.159Z,100170.19
2022-08-04T16:17:16.581Z,100170.94
2022-08-04T16:20:18.639Z,100169.56
2022-08-04T16:23:51.441Z,100173.38
2022-08-04T16:26:54.426Z,100182.28
2022-08-04T16:30:13.909Z,100184.22
2022-08-04T16:33:16.255Z,100192.06
2022-08-04T16:36:56.574Z,100201.03
2022-08-04T16:40:25.726Z,100215.06
2022-08-04T16:43:32.117Z,100215.41
2022-08-04T16:46:41.926Z,100215.97
2022-08-04T16:50:03.824Z,100224.47
2022-08-04T16:53:14.561Z,100219.88
2022-08-04T16:56:35.703Z,100218.06
2022-08-04T16:59:38.185Z,100216.13
2022-08-04T17:02:40.260Z,100211.66
2022-08-04T17:05:42.026Z,100206.56
2022-08-04T17:08:45.597Z,100209.78
2022-08-04T17:11:48.470Z,100196.00
2022-08-04T17:14:50.801Z,100199.44
2022-08-04T17:18:19.955Z,100197.78
2022-08-04T17:21:25.148Z,100203.63
2022-08-04T17:24:26.762Z,100206.94
2022-08-04T17:28:19.006Z,100206.63
2022-08-04T17:30:51.453Z,100202.66
2022-08-04T17:33:58.750Z,100197.25
2022-08-04T17:37:36.482Z,100208.47
2022-08-04T17:40:26.758Z,100209.16
2022-08-04T17:44:04.633Z,100213.94
2022-08-04T17:47:18.353Z,100202.94
2022-08-04T17:50:28.131Z,100207.69
2022-08-04T17:54:01.294Z,100208.00
2022-08-04T17:57:02.109Z,100212.72
2022-08-04T18:00:04.298Z,100211.72
2022-08-04T18:03:31.112Z,100203.91
2022-08-04T18:06:32.805Z,100195.50
2022-08-04T18:09:57.841Z,100202.72
2022-08-04T18:13:13.852Z,100205.09
2022-08-04T18:19:48.095Z,100197.63
2022-08-04T18:22:50.371Z,100197.66
2022-08-04T18:25:53.340Z,100212.53
2022-08-04T18:28:55.046Z,100216.66
2022-08-04T18:31:56.782Z,100213.31
2022-08-04T18:35:05.359Z,100205.34
2022-08-04T18:38:22.738Z,100201.59
2022-08-04T18:41:29.489Z,100215.81
2022-08-04T18:44:52.967Z,100224.50
2022-08-04T18:47:58.941Z,100229.59
2022-08-04T18:51:23.012Z,100232.16
2022-08-04T18:54:24.828Z,100240.59
2022-08-04T18:57:58.368Z,100246.53
2022-08-04T19:00:52.304Z,100248.47
2022-08-04T19:03:57.855Z,100258.63
2022-08-04T19:10:26.483Z,100264.59
2022-08-04T19:13:34.856Z,100267.78
2022-08-04T19:16:37.346Z,100279.19
2022-08-04T19:19:47.702Z,100292.94
2022-08-04T19:24:29.005Z,100302.44
2022-08-04T19:26:27.959Z,100308.19
2022-08-04T19:29:38.012Z,100310.09
2022-08-04T19:32:46.015Z,100308.41
2022-08-04T19:35:50.679Z,100305.66
2022-08-04T19:38:52.754Z,100289.63
2022-08-04T19:42:05.921Z,100314.53
2022-08-04T19:45:10.020Z,100303.97
2022-08-04T19:48:19.785Z,100309.03
2022-08-04T19:51:21.746Z,100302.50
2022-08-04T19:54:27.380Z,100299.13
2022-08-04T19:57:35.577Z,100304.59
2022-08-04T20:00:39.318Z,100311.16
2022-08-04T20:04:08.082Z,100313.91
2022-08-04T20:07:02.621Z,100333.56
2022-08-04T20:10:06.229Z,100333.56
2022-08-04T20:13:10.436Z,100340.06
2022-08-04T20:16:28.687Z,100359.31
2022-08-04T20:19:32.302Z,100360.13
2022-08-04T20:25:58.464Z,100351.03
2022-08-04T20:29:00.144Z,100337.09
2022-08-04T20:32:05.444Z,100337.06
2022-08-04T20:35:16.647Z,100357.16
2022-08-04T20:38:33.416Z,100364.09
2022-08-04T20:41:36.750Z,100359.66
2022-08-04T20:44:38.753Z,100373.13
2022-08-04T20:47:53.972Z,100384.94
2022-08-04T20:50:56.545Z,100387.88
2022-08-04T20:53:59.163Z,100391.88
2022-08-04T20:57:00.931Z,100370.97
2022-08-04T21:00:04.240Z,100361.91
2022-08-04T21:03:06.111Z,100362.69
2022-08-04T21:06:09.394Z,100349.41
2022-08-04T21:09:15.543Z,100348.13
2022-08-04T21:12:29.165Z,100346.22
2022-08-04T21:15:58.799Z,100348.72
2022-08-04T21:18:52.464Z,100353.97
2022-08-04T21:21:54.587Z,100373.56
2022-08-04T21:24:57.103Z,100394.81
2022-08-04T21:28:04.064Z,100393.94
2022-08-04T21:31:10.990Z,100373.69
2022-08-04T21:34:14.387Z,100392.41
2022-08-04T21:37:56.688Z,100415.94
2022-08-04T21:41:01.785Z,100392.94
2022-08-04T21:44:04.299Z,100397.59
2022-08-04T21:47:06.222Z,100392.25
2022-08-04T21:50:19.817Z,100413.28
2022-08-04T21:53:22.481Z,100403.75
2022-08-04T21:56:26.565Z,100405.59
2022-08-04T21:59:31.000Z,100404.50
2022-08-04T22:02:32.852Z,100420.25
2022-08-04T22:05:34.516Z,100411.78
2022-08-04T22:08:38.135Z,100396.19
2022-08-04T22:11:48.149Z,100396.78
2022-08-04T22:14:59.233Z,100398.59
2022-08-04T22:18:03.132Z,100409.09
2022-08-04T22:21:11.875Z,100412.81
2022-08-04T22:24:14.630Z,100399.63
2022-08-04T22:27:36.236Z,100383.34
2022-08-04T22:30:39.175Z,100379.72
2022-08-04T22:33:55.235Z,100367.19
2022-08-04T22:36:57.535Z,100369.00
2022-08-04T22:39:59.480Z,100393.81
2022-08-04T22:43:03.099Z,100399.84
2022-08-04T22:46:11.918Z,100412.19
2022-08-04T22:49:14.564Z,100383.38
2022-08-04T22:52:26.175Z,100372.44
2022-08-04T22:56:06.672Z,100334.13
2022-08-04T22:58:52.355Z,100342.50
2022-08-04T23:01:59.014Z,100353.44
2022-08-04T23:05:04.859Z,100354.47
2022-08-04T23:08:06.945Z,100377.56
2022-08-04T23:11:10.525Z,100373.53
2022-08-04T23:14:12.144Z,100362.41
2022-08-04T23:17:14.062Z,100352.06
2022-08-04T23:20:23.188Z,100345.09
2022-08-04T23:23:34.663Z,100352.44
2022-08-04T23:26:37.330Z,100354.69
2022-08-04T23:29:52.426Z,100352.13
2022-08-04T23:32:55.088Z,100358.84
2022-08-04T23:35:58.242Z,100372.22
2022-08-04T23:39:00.806Z,100372.56
2022-08-04T23:42:05.564Z,100378.44
2022-08-04T23:45:10.534Z,100385.22
2022-08-04T23:48:14.789Z,100390.56
2022-08-04T23:51:17.981Z,100402.94
2022-08-04T23:54:25.942Z,100413.38
2022-08-04T23:57:31.434Z,100408.94
